createdAt,value
2019-01-31T00:01:14.066Z,3
2019-01-31T00:06:13.941Z,3
2019-01-31T00:11:13.911Z,1
2019-01-31T00:16:13.931Z,1
2019-01-31T00:21:14.097Z,1
2019-01-31T00:26:13.911Z,1
2019-01-31T00:31:14.132Z,1
2019-01-31T00:36:14.034Z,1
2019-01-31T00:41:14.086Z,0
2019-01-31T00:46:13.920Z,0
2019-01-31T00:51:14.160Z,1
2019-01-31T00:56:14.088Z,0
2019-01-31T01:01:14.047Z,0
2019-01-31T01:06:13.795Z,0
2019-01-31T01:11:13.880Z,0
2019-01-31T01:16:14.084Z,1
2019-01-31T01:21:13.931Z,1
2019-01-31T01:26:13.830Z,1
2019-01-31T01:31:14.163Z,1
2019-01-31T01:36:14.131Z,5
2019-01-31T01:41:14.056Z,3
2019-01-31T01:46:14.062Z,3
2019-01-31T01:51:14.060Z,1
2019-01-31T01:56:13.791Z,3
2019-01-31T02:01:14.146Z,3
2019-01-31T02:06:13.804Z,3
2019-01-31T02:11:14.129Z,3
2019-01-31T02:16:13.855Z,4
2019-01-31T02:21:13.759Z,6
2019-01-31T02:26:13.706Z,5
2019-01-31T02:31:13.939Z,8
2019-01-31T02:36:13.855Z,10
2019-01-31T02:41:13.701Z,10
2019-01-31T02:46:13.645Z,13
2019-01-31T02:51:13.921Z,11
2019-01-31T02:56:13.748Z,16
2019-01-31T03:01:13.751Z,16
2019-01-31T03:06:13.762Z,14
2019-01-31T03:11:13.810Z,14
2019-01-31T03:16:13.653Z,15
2019-01-31T03:21:13.955Z,13
2019-01-31T03:26:13.762Z,13
2019-01-31T03:31:13.902Z,13
2019-01-31T03:36:13.860Z,15
2019-01-31T03:41:13.904Z,14
2019-01-31T03:46:13.722Z,15
2019-01-31T03:51:13.838Z,14
2019-01-31T03:56:15.613Z,14
2019-01-31T04:01:13.650Z,16
2019-01-31T04:06:13.698Z,15
2019-01-31T04:11:13.546Z,18
2019-01-31T04:16:13.872Z,17
2019-01-31T04:21:13.790Z,20
2019-01-31T04:26:13.671Z,21
2019-01-31T04:31:13.546Z,20
2019-01-31T04:36:13.668Z,19
2019-01-31T04:41:13.551Z,22
2019-01-31T04:46:13.671Z,22
2019-01-31T04:51:13.854Z,24
2019-01-31T04:56:13.569Z,18
2019-01-31T05:01:13.905Z,22
2019-01-31T05:06:13.452Z,22
2019-01-31T05:11:13.598Z,23
2019-01-31T05:16:13.699Z,21
2019-01-31T05:21:13.511Z,23
2019-01-31T05:26:13.747Z,20
2019-01-31T05:31:13.477Z,20
2019-01-31T05:36:13.398Z,26
2019-01-31T05:41:13.431Z,28
2019-01-31T05:46:13.469Z,20
2019-01-31T05:51:13.653Z,24
2019-01-31T05:56:13.501Z,18
2019-01-31T06:01:13.665Z,29
2019-01-31T06:06:13.687Z,23
2019-01-31T06:11:13.749Z,25
2019-01-31T06:16:13.654Z,28
2019-01-31T06:21:13.372Z,26
2019-01-31T06:26:13.709Z,25
2019-01-31T06:31:13.411Z,26
2019-01-31T06:36:13.615Z,22
2019-01-31T06:41:18.838Z,22
2019-01-31T06:46:13.382Z,27
2019-01-31T06:51:13.379Z,27
2019-01-31T06:56:13.551Z,22
2019-01-31T07:01:13.473Z,22
2019-01-31T07:06:13.266Z,28
2019-01-31T07:11:13.639Z,31
2019-01-31T07:16:13.529Z,31
2019-01-31T07:21:13.582Z,29
2019-01-31T07:26:13.561Z,30
2019-01-31T07:31:14.623Z,28
2019-01-31T07:36:13.265Z,26
2019-01-31T07:41:13.317Z,26
2019-01-31T07:46:13.472Z,29
2019-01-31T07:51:13.409Z,25
2019-01-31T07:56:13.187Z,24
2019-01-31T08:01:13.598Z,22
2019-01-31T08:06:13.452Z,19
2019-01-31T08:11:13.291Z,20
2019-01-31T08:16:13.319Z,22
2019-01-31T08:21:13.385Z,23
2019-01-31T08:26:13.476Z,25
2019-01-31T08:31:13.465Z,20
2019-01-31T08:36:13.287Z,19
2019-01-31T08:41:13.309Z,25
2019-01-31T08:46:13.417Z,21
2019-01-31T08:51:13.413Z,23
2019-01-31T08:56:13.150Z,29
2019-01-31T09:01:13.301Z,29
2019-01-31T09:06:15.046Z,23
2019-01-31T09:11:13.154Z,22
2019-01-31T09:16:13.344Z,21
2019-01-31T09:21:13.405Z,22
2019-01-31T09:26:13.264Z,25
2019-01-31T09:31:13.413Z,22
2019-01-31T09:36:13.327Z,24
2019-01-31T09:41:13.353Z,23
2019-01-31T09:46:13.290Z,25
2019-01-31T09:51:13.316Z,26
2019-01-31T09:56:13.332Z,23
2019-01-31T10:01:13.409Z,26
2019-01-31T10:06:13.294Z,23
2019-01-31T10:11:13.366Z,21
2019-01-31T10:16:13.155Z,25
2019-01-31T10:21:13.121Z,29
2019-01-31T10:26:13.326Z,31
2019-01-31T10:31:13.062Z,26
2019-01-31T10:36:13.306Z,31
2019-01-31T10:41:13.211Z,29
2019-01-31T10:46:13.122Z,25
2019-01-31T10:51:13.155Z,24
2019-01-31T10:56:13.097Z,27
2019-01-31T11:01:13.091Z,30
2019-01-31T11:06:12.926Z,27
2019-01-31T11:11:12.999Z,27
2019-01-31T11:16:13.197Z,30
2019-01-31T11:21:13.242Z,26
2019-01-31T11:26:13.032Z,25
2019-01-31T11:31:13.212Z,20
2019-01-31T11:36:12.988Z,29
2019-01-31T11:41:12.968Z,28
2019-01-31T11:46:13.231Z,25
2019-01-31T11:51:13.226Z,16
2019-01-31T11:56:13.155Z,24
2019-01-31T12:01:13.150Z,23
2019-01-31T12:06:13.081Z,25
2019-01-31T12:11:13.099Z,24
2019-01-31T12:16:13.065Z,20
2019-01-31T12:21:13.033Z,16
2019-01-31T12:26:14.077Z,22
2019-01-31T12:31:13.047Z,24
2019-01-31T12:36:12.821Z,20
2019-01-31T12:41:13.108Z,17
2019-01-31T12:46:12.868Z,17
2019-01-31T12:51:12.840Z,18
2019-01-31T12:56:13.064Z,17
2019-01-31T13:01:13.123Z,16
2019-01-31T13:06:12.951Z,16
2019-01-31T13:11:13.067Z,17
2019-01-31T13:16:12.885Z,14
2019-01-31T13:21:12.929Z,20
2019-01-31T13:26:12.839Z,17
2019-01-31T13:31:12.906Z,17
2019-01-31T13:36:12.862Z,16
2019-01-31T13:41:12.930Z,15
2019-01-31T13:46:12.778Z,19
2019-01-31T13:51:12.970Z,18
2019-01-31T13:56:13.001Z,16
2019-01-31T14:01:13.054Z,17
2019-01-31T14:06:12.727Z,17
2019-01-31T14:11:12.962Z,16
2019-01-31T14:16:12.936Z,15
2019-01-31T14:21:12.989Z,15
2019-01-31T14:26:12.997Z,14
2019-01-31T14:31:13.001Z,17
2019-01-31T14:36:12.872Z,18
2019-01-31T14:41:12.662Z,12
2019-01-31T14:46:12.742Z,15
2019-01-31T14:51:12.881Z,14
2019-01-31T14:56:12.783Z,19
2019-01-31T15:01:12.858Z,17
2019-01-31T15:06:12.765Z,17
2019-01-31T15:11:12.737Z,14
2019-01-31T15:16:12.992Z,17
2019-01-31T15:21:13.017Z,18
2019-01-31T15:26:12.833Z,15
2019-01-31T15:31:12.741Z,17
2019-01-31T15:36:12.573Z,17
2019-01-31T15:41:12.887Z,20
2019-01-31T15:46:12.966Z,15
2019-01-31T15:51:12.703Z,17
2019-01-31T15:56:12.871Z,21
2019-01-31T16:01:12.973Z,21
2019-01-31T16:06:12.725Z,12
2019-01-31T16:11:12.823Z,14
2019-01-31T16:16:12.630Z,16
2019-01-31T16:21:12.835Z,16
2019-01-31T16:26:12.531Z,19
2019-01-31T16:31:12.664Z,20
2019-01-31T16:36:12.578Z,19
2019-01-31T16:41:12.635Z,21
2019-01-31T16:46:12.817Z,16
2019-01-31T16:51:12.851Z,19
2019-01-31T16:56:12.821Z,15
2019-01-31T17:01:15.756Z,18
2019-01-31T17:06:12.581Z,15
2019-01-31T17:11:12.649Z,20
2019-01-31T17:16:12.733Z,14
2019-01-31T17:21:12.777Z,14
2019-01-31T17:26:12.860Z,21
2019-01-31T17:31:12.611Z,14
2019-01-31T17:36:12.681Z,19
2019-01-31T17:41:12.612Z,21
2019-01-31T17:46:12.649Z,21
2019-01-31T17:51:12.678Z,22
2019-01-31T17:56:12.623Z,19
2019-01-31T18:01:12.434Z,17
2019-01-31T18:06:12.482Z,26
2019-01-31T18:11:12.563Z,20
2019-01-31T18:16:12.696Z,27
2019-01-31T18:21:13.055Z,26
2019-01-31T18:26:12.703Z,25
2019-01-31T18:31:12.635Z,29
2019-01-31T18:36:12.371Z,23
2019-01-31T18:41:12.557Z,25
2019-01-31T18:46:12.597Z,26
2019-01-31T18:51:12.578Z,24
2019-01-31T18:56:12.512Z,27
2019-01-31T19:01:12.652Z,29
2019-01-31T19:06:12.412Z,26
2019-01-31T19:11:12.370Z,20
2019-01-31T19:16:12.532Z,31
2019-01-31T19:21:12.635Z,30
2019-01-31T19:26:12.363Z,32
2019-01-31T19:31:12.430Z,29
2019-01-31T19:36:12.423Z,29
2019-01-31T19:41:12.514Z,27
2019-01-31T19:46:16.611Z,28
2019-01-31T19:51:12.825Z,30
2019-01-31T19:56:12.321Z,36
2019-01-31T20:01:12.345Z,29
2019-01-31T20:06:12.537Z,31
2019-01-31T20:11:12.335Z,35
2019-01-31T20:16:12.377Z,35
2019-01-31T20:21:12.358Z,35
2019-01-31T20:26:12.496Z,35
2019-01-31T20:31:12.427Z,35
2019-01-31T20:36:12.321Z,35
2019-01-31T20:41:12.461Z,36
2019-01-31T20:46:12.439Z,28
2019-01-31T20:51:12.737Z,29
2019-01-31T20:56:12.481Z,31
2019-01-31T21:01:12.286Z,36
2019-01-31T21:06:12.184Z,30
2019-01-31T21:11:12.152Z,31
2019-01-31T21:16:12.219Z,32
2019-01-31T21:21:12.231Z,34
2019-01-31T21:26:13.716Z,26
2019-01-31T21:31:12.440Z,30
2019-01-31T21:36:12.431Z,33
2019-01-31T21:41:12.259Z,31
2019-01-31T21:46:12.343Z,31
2019-01-31T21:51:12.079Z,27
2019-01-31T21:56:12.115Z,25
2019-01-31T22:01:12.323Z,31
2019-01-31T22:06:22.301Z,30
2019-01-31T22:11:12.324Z,26
2019-01-31T22:16:12.308Z,26
2019-01-31T22:21:12.312Z,28
2019-01-31T22:26:12.273Z,29
2019-01-31T22:31:12.264Z,28
2019-01-31T22:36:12.062Z,32
2019-01-31T22:41:12.075Z,27
2019-01-31T22:46:11.989Z,33
2019-01-31T22:51:12.112Z,34
2019-01-31T22:56:12.191Z,32
2019-01-31T23:01:12.301Z,28
2019-01-31T23:06:12.326Z,28
2019-01-31T23:11:12.180Z,28
2019-01-31T23:16:11.986Z,32
2019-01-31T23:21:12.160Z,30
2019-01-31T23:26:11.921Z,32
2019-01-31T23:31:12.341Z,34
2019-01-31T23:36:12.080Z,32
2019-01-31T23:41:12.256Z,36
2019-01-31T23:46:12.171Z,33
2019-01-31T23:51:11.950Z,29
2019-01-31T23:56:12.207Z,28
